GCHIGCGM

Guest
Details From GCHI - Hierro
To GCGM - La Gomera
Flight Number -
Tags Generated
Created
Modified
Stats Distance 38 nm / 70 km
Max Altitude 0 ft / 0 m
Waypoints 2
Social Downloads 4
Likes 0
Share VATSIM

Download

Looking for another format? Having issues loading an existing format? Contact us
Advertisement - Login to hide

Notes

Generated

Route

GCHI GCGM

ID Type Via Altitude Latitude Longitude Leg Dist Tot Dist Heading (true) Name
O GCHI APT - 0 ft / 0 m 27.81985˚ -17.88997˚ - 0 nm - -
O GCGM APT - 0 ft / 0 m 28.02859˚ -17.22214˚ 37 nm 37 nm 70° / 71° -

Altitude Profile

Advertisement - Login to hide

GCHI

Details ICAO GCHI (VDE)
Name Hierro
Region Canary Islands
Timezone Atlantic/Canary (UTC+0.0)
Stats Elevation 337 ft / 103 m (AMSL)
Location 27.814848° -17.887052°
Runways 1
Magnetic Variation 5.627° W

METAR

GCHI 181230Z 05017KT 9999 FEW026 21/14 Q1025

Decode

TAF

TAF GCHI 180800Z 1809/1909 04018KT 9999 FEW025 TX23/1814Z TN18/1906Z BECMG 1819/1820 35005KT

Decode

Departure Runways

ID Width Length Bearing (true) Bearing (mag) Surface Threshold Offset Overrun Length
16 98 ft / 30 m 4,110 ft / 1,253 m 152.71° 158.34° Asphalt 0 ft / 0 m 112 ft / 34 m
34 98 ft / 30 m 4,110 ft / 1,253 m 332.71° 338.34° Asphalt 0 ft / 0 m 105 ft / 32 m

GCGM

Details ICAO GCGM (GMZ)
Name La Gomera
Region Canary Islands
Timezone Atlantic/Canary (UTC+0.0)
Stats Elevation 715 ft / 218 m (AMSL)
Location 28.029627° -17.214603°
Runways 1
Magnetic Variation 5.358° W

METAR

GCGM 181230Z 20004KT 150V240 9999 FEW030 20/12 Q1025 RMK R09/17003KT 070V220 ARP/20004KT 120V260

Decode

TAF

TAF GCGM 180800Z 1809/1909 VRB05KT 9999 SCT030 TX23/1814Z TN18/1906Z BECMG 1810/1812 21010KT BECMG 1817/1819 VRB05KT

Decode

Destination Runways

ID Width Length Bearing (true) Bearing (mag) Surface Threshold Offset Overrun Length
09 98 ft / 30 m 4,914 ft / 1,498 m 81.17° 86.53° Asphalt 0 ft / 0 m 0 ft / 0 m
27 98 ft / 30 m 4,914 ft / 1,498 m 261.18° 266.54° Asphalt 0 ft / 0 m 0 ft / 0 m